createdAt,value
2022-10-05T00:00:23.180Z,16.94
2022-10-05T00:02:52.361Z,16.93
2022-10-05T00:05:29.975Z,16.94
2022-10-05T00:08:01.655Z,16.92
2022-10-05T00:10:29.307Z,16.95
2022-10-05T00:12:55.981Z,16.94
2022-10-05T00:15:23.524Z,16.95
2022-10-05T00:17:50.159Z,16.93
2022-10-05T00:20:23.547Z,16.91
2022-10-05T00:23:00.962Z,16.93
2022-10-05T00:25:27.584Z,16.92
2022-10-05T00:28:00.252Z,16.90
2022-10-05T00:30:32.220Z,16.90
2022-10-05T00:32:59.796Z,16.87
2022-10-05T00:35:29.271Z,16.85
2022-10-05T00:37:56.305Z,16.86
2022-10-05T00:40:49.990Z,16.90
2022-10-05T00:43:36.859Z,16.91
2022-10-05T00:46:13.147Z,16.90
2022-10-05T00:49:18.845Z,16.92
2022-10-05T00:51:54.425Z,16.88
2022-10-05T00:54:26.857Z,16.92
2022-10-05T00:57:29.940Z,16.91
2022-10-05T01:00:17.858Z,16.90
2022-10-05T01:03:32.038Z,16.91
2022-10-05T01:06:36.338Z,16.89
2022-10-05T01:09:13.874Z,16.87
2022-10-05T01:11:54.665Z,16.86
2022-10-05T01:14:46.441Z,16.88
2022-10-05T01:17:20.480Z,16.86
2022-10-05T01:20:27.119Z,16.81
2022-10-05T01:22:53.678Z,16.76
2022-10-05T01:25:36.279Z,16.73
2022-10-05T01:28:10.416Z,16.72
2022-10-05T01:30:51.654Z,16.66
2022-10-05T01:33:45.666Z,16.66
2022-10-05T01:36:27.949Z,16.69
2022-10-05T01:39:37.057Z,16.72
2022-10-05T01:42:15.643Z,16.72
2022-10-05T01:45:00.524Z,16.70
2022-10-05T01:47:44.620Z,16.70
2022-10-05T01:50:40.996Z,16.66
2022-10-05T01:53:13.286Z,16.73
2022-10-05T01:56:01.333Z,16.73
2022-10-05T01:58:43.202Z,16.73
2022-10-05T02:01:57.062Z,16.74
2022-10-05T02:05:04.162Z,16.76
2022-10-05T02:07:43.761Z,16.74
2022-10-05T02:10:25.508Z,16.70
2022-10-05T02:12:59.705Z,16.73
2022-10-05T02:15:43.064Z,16.72
2022-10-05T02:18:16.106Z,16.72
2022-10-05T02:20:45.570Z,16.69
2022-10-05T02:23:23.898Z,16.73
2022-10-05T02:25:52.799Z,16.72
2022-10-05T02:28:36.756Z,16.72
2022-10-05T02:31:09.422Z,16.74
2022-10-05T02:33:36.770Z,16.75
2022-10-05T02:36:33.833Z,16.68
2022-10-05T02:39:06.659Z,16.60
2022-10-05T02:41:41.547Z,16.56
2022-10-05T02:44:14.945Z,16.62
2022-10-05T02:46:56.162Z,16.67
2022-10-05T02:49:44.999Z,16.68
2022-10-05T02:52:37.418Z,16.68
2022-10-05T02:55:18.281Z,16.67
2022-10-05T02:57:54.489Z,16.67
2022-10-05T03:00:24.165Z,16.69
2022-10-05T03:03:14.076Z,16.66
2022-10-05T03:06:13.734Z,16.73
2022-10-05T03:08:47.037Z,16.76
2022-10-05T03:11:35.535Z,16.73
2022-10-05T03:14:18.974Z,16.64
2022-10-05T03:16:46.179Z,16.62
2022-10-05T03:19:42.148Z,16.61
2022-10-05T03:22:14.378Z,16.61
2022-10-05T03:24:48.067Z,16.60
2022-10-05T03:27:15.010Z,16.62
2022-10-05T03:29:57.446Z,16.58
2022-10-05T03:32:53.491Z,16.61
2022-10-05T03:35:41.255Z,16.63
2022-10-05T03:38:38.751Z,16.65
2022-10-05T03:41:20.156Z,16.67
2022-10-05T03:44:02.070Z,16.67
2022-10-05T03:46:59.632Z,16.66
2022-10-05T03:49:58.678Z,16.66
2022-10-05T03:52:42.748Z,16.65
2022-10-05T03:55:35.082Z,16.65
2022-10-05T03:58:09.563Z,16.61
2022-10-05T04:00:38.145Z,16.62
2022-10-05T04:03:16.790Z,16.61
2022-10-05T04:05:51.996Z,16.60
2022-10-05T04:08:32.584Z,16.63
2022-10-05T04:11:04.800Z,16.56
2022-10-05T04:13:47.887Z,16.55
2022-10-05T04:16:20.425Z,16.54
2022-10-05T04:19:15.921Z,16.57
2022-10-05T04:22:25.642Z,16.61
2022-10-05T04:25:10.922Z,16.60
2022-10-05T04:27:47.529Z,16.65
2022-10-05T04:30:22.247Z,16.63
2022-10-05T04:32:59.200Z,16.59
2022-10-05T04:36:10.828Z,16.56
2022-10-05T04:38:50.905Z,16.53
2022-10-05T04:41:43.638Z,16.44
2022-10-05T04:44:13.350Z,16.53
2022-10-05T04:47:01.273Z,16.52
2022-10-05T04:49:48.839Z,16.51
2022-10-05T04:52:37.226Z,16.49
2022-10-05T04:55:41.792Z,16.50
2022-10-05T04:58:29.675Z,16.55
2022-10-05T05:01:28.591Z,16.51
2022-10-05T05:04:29.807Z,16.49
2022-10-05T05:07:15.296Z,16.48
2022-10-05T05:10:06.082Z,16.50
2022-10-05T05:12:48.256Z,16.50
2022-10-05T05:15:26.890Z,16.51
2022-10-05T05:18:02.722Z,16.53
2022-10-05T05:20:51.320Z,16.51
2022-10-05T05:23:31.899Z,16.55
2022-10-05T05:26:20.182Z,16.50
2022-10-05T05:29:13.039Z,16.49
2022-10-05T05:32:18.822Z,16.51
2022-10-05T05:35:13.247Z,16.47
2022-10-05T05:38:04.387Z,16.49
2022-10-05T05:40:48.700Z,16.48
2022-10-05T05:43:28.442Z,16.45
2022-10-05T05:46:00.651Z,16.48
2022-10-05T05:48:38.413Z,16.48
2022-10-05T05:51:17.065Z,16.45
2022-10-05T05:53:46.810Z,16.47
2022-10-05T05:56:17.569Z,16.49
2022-10-05T05:58:56.744Z,16.45
2022-10-05T06:01:56.428Z,16.46
2022-10-05T06:04:41.353Z,16.46
2022-10-05T06:07:16.307Z,16.45
2022-10-05T06:10:27.435Z,16.38
2022-10-05T06:13:20.514Z,16.33
2022-10-05T06:16:20.704Z,16.35
2022-10-05T06:18:54.850Z,16.38
2022-10-05T06:21:28.846Z,16.38
2022-10-05T06:24:15.557Z,16.35
2022-10-05T06:27:07.470Z,16.39
2022-10-05T06:30:08.637Z,16.42
2022-10-05T06:32:49.969Z,16.42
2022-10-05T06:35:48.184Z,16.42
2022-10-05T06:38:23.497Z,16.44
2022-10-05T06:41:19.545Z,16.46
2022-10-05T06:44:04.138Z,16.51
2022-10-05T06:47:14.697Z,16.43
2022-10-05T06:50:15.522Z,16.35
2022-10-05T06:53:31.140Z,16.35
2022-10-05T06:56:20.043Z,16.32
2022-10-05T06:59:00.514Z,16.35
2022-10-05T07:01:56.032Z,16.40
2022-10-05T07:04:59.935Z,16.37
2022-10-05T07:07:58.202Z,16.32
2022-10-05T07:10:33.886Z,16.31
2022-10-05T07:13:40.078Z,16.30
2022-10-05T07:16:32.718Z,16.39
2022-10-05T07:19:18.497Z,16.34
2022-10-05T07:22:09.039Z,16.29
2022-10-05T07:24:44.687Z,16.38
2022-10-05T07:27:21.097Z,16.40
2022-10-05T07:30:10.167Z,16.35
2022-10-05T07:33:09.891Z,16.42
2022-10-05T07:35:55.370Z,16.51
2022-10-05T07:38:33.369Z,16.39
2022-10-05T07:41:14.545Z,16.50
2022-10-05T07:44:11.596Z,16.55
2022-10-05T07:46:51.244Z,16.57
2022-10-05T07:49:40.947Z,16.61
2022-10-05T07:52:34.693Z,16.61
2022-10-05T07:55:20.525Z,16.60
2022-10-05T07:58:20.213Z,16.66
2022-10-05T08:01:05.871Z,16.68
2022-10-05T08:03:44.616Z,16.72
2022-10-05T08:06:28.955Z,16.74
2022-10-05T08:09:31.251Z,16.75
2022-10-05T08:12:09.432Z,16.74
2022-10-05T08:14:52.843Z,16.76
2022-10-05T08:17:44.807Z,16.76
2022-10-05T08:20:17.489Z,16.77
2022-10-05T08:22:54.351Z,16.78
2022-10-05T08:25:29.153Z,16.83
2022-10-05T08:28:20.256Z,16.84
2022-10-05T08:31:01.000Z,16.86
2022-10-05T08:33:36.235Z,16.91
2022-10-05T08:36:12.377Z,16.91
2022-10-05T08:38:40.029Z,16.95
2022-10-05T08:41:32.208Z,16.98
2022-10-05T08:44:33.469Z,16.96
2022-10-05T08:47:06.158Z,16.97
2022-10-05T08:50:09.931Z,16.99
2022-10-05T08:52:46.611Z,16.99
2022-10-05T08:55:20.142Z,16.98
2022-10-05T08:57:53.013Z,17.02
2022-10-05T09:00:21.395Z,17.06
2022-10-05T09:03:35.261Z,17.10
2022-10-05T09:06:26.729Z,17.14
2022-10-05T09:09:25.116Z,17.22
2022-10-05T09:12:06.925Z,17.29
2022-10-05T09:15:01.495Z,17.31
2022-10-05T09:18:03.077Z,17.33
2022-10-05T09:20:41.446Z,17.33
2022-10-05T09:23:29.863Z,17.34
2022-10-05T09:26:07.561Z,17.43
2022-10-05T09:28:46.203Z,17.34
2022-10-05T09:31:27.294Z,17.40
2022-10-05T09:34:12.630Z,17.40
2022-10-05T09:36:59.100Z,17.50
2022-10-05T09:39:28.603Z,17.57
2022-10-05T09:42:16.884Z,17.53
2022-10-05T09:45:02.005Z,17.55
2022-10-05T09:47:34.607Z,17.64
2022-10-05T09:50:22.845Z,17.68
2022-10-05T09:52:55.735Z,17.71
2022-10-05T09:55:40.379Z,17.72
2022-10-05T09:59:23.926Z,17.83
2022-10-05T10:02:20.005Z,17.85
2022-10-05T10:05:05.583Z,17.86
2022-10-05T10:08:22.585Z,17.98
2022-10-05T10:11:31.276Z,18.04
2022-10-05T10:14:10.262Z,18.13
2022-10-05T10:16:55.868Z,18.21
2022-10-05T10:19:43.531Z,18.28
2022-10-05T10:22:27.722Z,18.29
2022-10-05T10:25:37.209Z,18.31
2022-10-05T10:28:18.436Z,18.31
2022-10-05T10:31:10.150Z,18.30
2022-10-05T10:34:07.006Z,18.31
2022-10-05T10:37:03.474Z,18.34
2022-10-05T10:40:04.367Z,18.41
2022-10-05T10:42:34.040Z,18.50
2022-10-05T10:45:19.285Z,18.60
2022-10-05T10:48:11.489Z,18.79
2022-10-05T10:51:18.353Z,18.89
2022-10-05T10:54:07.659Z,18.96
2022-10-05T10:56:56.137Z,18.99
2022-10-05T10:59:31.837Z,18.99
2022-10-05T11:02:20.124Z,18.96
2022-10-05T11:04:53.778Z,18.89
2022-10-05T11:07:23.280Z,18.88
2022-10-05T11:10:27.486Z,18.87
2022-10-05T11:13:18.625Z,18.87
2022-10-05T11:18:47.468Z,19.05
2022-10-05T11:21:22.921Z,19.16
2022-10-05T11:24:07.608Z,19.25
2022-10-05T11:26:43.024Z,19.37
2022-10-05T11:29:21.004Z,19.43
2022-10-05T11:32:03.062Z,19.57
2022-10-05T11:35:18.682Z,19.63
2022-10-05T11:38:02.389Z,19.60
2022-10-05T11:40:47.694Z,19.63
2022-10-05T11:43:36.766Z,19.67
2022-10-05T11:46:43.333Z,19.73
2022-10-05T11:49:25.764Z,19.80
2022-10-05T11:51:54.985Z,19.78
2022-10-05T11:54:28.779Z,19.83
2022-10-05T11:57:17.640Z,19.85
2022-10-05T11:59:58.254Z,19.93
2022-10-05T12:02:33.971Z,19.96
2022-10-05T12:05:11.199Z,19.99
2022-10-05T12:07:52.043Z,20.00
2022-10-05T12:10:44.740Z,20.03
2022-10-05T12:13:25.457Z,20.07
2022-10-05T12:16:01.437Z,20.09
2022-10-05T12:18:31.105Z,20.23
2022-10-05T12:21:03.672Z,20.27
2022-10-05T12:23:54.764Z,20.32
2022-10-05T12:26:36.786Z,20.33
2022-10-05T12:29:15.923Z,20.38
2022-10-05T12:31:54.496Z,20.43
2022-10-05T12:34:26.130Z,20.44
2022-10-05T12:37:04.401Z,20.36
2022-10-05T12:40:06.142Z,20.24
2022-10-05T12:42:54.647Z,20.15
2022-10-05T12:45:33.993Z,20.08
2022-10-05T12:48:08.288Z,20.02
2022-10-05T12:50:39.017Z,19.93
2022-10-05T12:53:23.809Z,19.86
2022-10-05T12:56:08.359Z,19.81
2022-10-05T12:59:05.671Z,19.73
2022-10-05T13:01:49.300Z,19.67
2022-10-05T13:04:26.714Z,19.67
2022-10-05T13:07:20.953Z,19.62
2022-10-05T13:10:08.800Z,19.56
2022-10-05T13:12:44.707Z,19.72
2022-10-05T13:15:18.937Z,19.84
2022-10-05T13:17:48.550Z,19.88
2022-10-05T13:20:21.594Z,19.82
2022-10-05T13:23:00.492Z,19.83
2022-10-05T13:25:32.637Z,19.86
2022-10-05T13:28:17.367Z,19.97
2022-10-05T13:30:52.024Z,20.09
2022-10-05T13:33:31.177Z,20.15
2022-10-05T13:36:42.513Z,20.24
2022-10-05T13:39:30.313Z,20.33
2022-10-05T13:42:05.877Z,20.43
2022-10-05T13:44:47.954Z,20.46
2022-10-05T13:47:23.478Z,20.48
2022-10-05T13:50:05.687Z,20.50
2022-10-05T13:52:53.767Z,20.56
2022-10-05T13:55:40.557Z,20.62
2022-10-05T13:58:44.606Z,20.73
2022-10-05T14:01:41.726Z,20.79
2022-10-05T14:04:50.793Z,20.84
2022-10-05T14:07:39.371Z,20.89
2022-10-05T14:10:14.339Z,20.92
2022-10-05T14:12:43.498Z,20.91
2022-10-05T14:15:38.478Z,20.86
2022-10-05T14:18:23.726Z,20.91
2022-10-05T14:21:05.674Z,20.94
2022-10-05T14:23:32.429Z,20.93
2022-10-05T14:25:59.619Z,20.93
2022-10-05T14:28:33.656Z,20.95
2022-10-05T14:31:03.465Z,20.96
2022-10-05T14:33:34.940Z,20.95
2022-10-05T14:36:02.516Z,20.95
2022-10-05T14:38:53.281Z,20.93
2022-10-05T14:41:27.663Z,20.95
2022-10-05T14:43:59.761Z,20.91
2022-10-05T14:46:32.734Z,20.90
2022-10-05T14:49:17.169Z,20.73
2022-10-05T14:51:44.027Z,20.59
2022-10-05T14:54:29.287Z,20.43
2022-10-05T14:57:25.124Z,20.33
2022-10-05T15:00:12.361Z,20.27
2022-10-05T15:03:03.578Z,20.20
2022-10-05T15:05:50.796Z,20.19
2022-10-05T15:08:20.255Z,20.16
2022-10-05T15:10:56.613Z,20.12
2022-10-05T15:13:32.869Z,20.09
2022-10-05T15:16:12.048Z,20.03
2022-10-05T15:18:49.074Z,20.00
2022-10-05T15:21:51.043Z,19.99
2022-10-05T15:24:26.391Z,19.94
2022-10-05T15:26:57.827Z,19.89
2022-10-05T15:29:32.943Z,19.84
2022-10-05T15:32:18.245Z,19.82
2022-10-05T15:35:27.067Z,19.77
2022-10-05T15:38:04.433Z,19.73
2022-10-05T15:40:42.429Z,19.69
2022-10-05T15:43:16.358Z,19.65
2022-10-05T15:46:01.628Z,19.61
2022-10-05T15:48:48.470Z,19.63
2022-10-05T15:51:30.779Z,19.66
2022-10-05T15:54:30.279Z,19.67
2022-10-05T15:57:02.010Z,19.74
2022-10-05T15:59:44.771Z,19.71
2022-10-05T16:02:19.682Z,19.70
2022-10-05T16:05:12.242Z,19.70
2022-10-05T16:08:04.889Z,19.58
2022-10-05T16:10:33.825Z,19.54
2022-10-05T16:13:14.287Z,19.48
2022-10-05T16:15:48.727Z,19.54
2022-10-05T16:18:32.170Z,19.49
2022-10-05T16:21:26.784Z,19.46
2022-10-05T16:23:53.233Z,19.43
2022-10-05T16:26:32.706Z,19.36
2022-10-05T16:29:37.203Z,19.31
2022-10-05T16:32:19.081Z,19.29
2022-10-05T16:35:07.835Z,19.24
2022-10-05T16:37:56.585Z,19.19
2022-10-05T16:40:41.591Z,19.18
2022-10-05T16:43:40.164Z,19.16
2022-10-05T16:46:14.821Z,19.18
2022-10-05T16:49:02.129Z,19.11
2022-10-05T16:51:59.235Z,19.14
2022-10-05T16:54:47.491Z,19.04
2022-10-05T16:57:38.958Z,18.99
2022-10-05T17:00:22.055Z,19.00
2022-10-05T17:03:18.351Z,19.00
2022-10-05T17:06:03.967Z,19.00
2022-10-05T17:08:52.351Z,18.97
2022-10-05T17:11:18.891Z,18.97
2022-10-05T17:14:08.393Z,18.94
2022-10-05T17:17:04.338Z,18.90
2022-10-05T17:19:55.845Z,18.90
2022-10-05T17:22:32.252Z,18.93
2022-10-05T17:25:11.496Z,18.97
2022-10-05T17:27:54.741Z,18.91
2022-10-05T17:30:27.111Z,18.92
2022-10-05T17:33:14.746Z,18.84
2022-10-05T17:35:56.769Z,18.84
2022-10-05T17:38:50.829Z,18.77
2022-10-05T17:41:24.556Z,18.76
2022-10-05T17:44:09.883Z,18.71
2022-10-05T17:46:38.906Z,18.66
2022-10-05T17:49:16.205Z,18.64
2022-10-05T17:52:01.435Z,18.57
2022-10-05T17:54:50.547Z,18.61
2022-10-05T17:57:25.267Z,18.60
2022-10-05T17:59:57.708Z,18.61
2022-10-05T18:02:36.959Z,18.58
2022-10-05T18:05:06.532Z,18.56
2022-10-05T18:07:37.673Z,18.47
2022-10-05T18:10:11.666Z,18.47
2022-10-05T18:12:44.966Z,18.46
2022-10-05T18:15:36.075Z,18.52
2022-10-05T18:18:38.583Z,18.53
2022-10-05T18:21:24.132Z,18.50
2022-10-05T18:23:58.482Z,18.49
2022-10-05T18:26:52.940Z,18.48
2022-10-05T18:29:46.013Z,18.47
2022-10-05T18:32:40.597Z,18.33
2022-10-05T18:35:21.332Z,18.40
2022-10-05T18:38:09.618Z,18.40
2022-10-05T18:40:54.816Z,18.32
2022-10-05T18:43:27.639Z,18.31
2022-10-05T18:46:23.634Z,18.33
2022-10-05T18:49:21.111Z,18.24
2022-10-05T18:52:04.007Z,18.28
2022-10-05T18:54:30.607Z,18.26
2022-10-05T18:56:59.535Z,18.22
2022-10-05T18:59:48.498Z,18.24
2022-10-05T19:02:20.221Z,18.22
2022-10-05T19:04:52.844Z,18.16
2022-10-05T19:07:26.001Z,18.15
2022-10-05T19:10:14.985Z,18.04
2022-10-05T19:13:26.224Z,18.07
2022-10-05T19:16:06.667Z,17.93
2022-10-05T19:18:51.409Z,18.01
2022-10-05T19:21:30.350Z,17.90
2022-10-05T19:24:05.218Z,17.87
2022-10-05T19:26:40.997Z,17.78
2022-10-05T19:29:27.194Z,17.91
2022-10-05T19:32:02.309Z,17.98
2022-10-05T19:34:34.871Z,17.98
2022-10-05T19:37:14.770Z,17.97
2022-10-05T19:39:44.814Z,17.98
2022-10-05T19:42:11.549Z,18.01
2022-10-05T19:44:54.429Z,18.04
2022-10-05T19:47:52.241Z,18.05
2022-10-05T19:50:31.627Z,17.91
2022-10-05T19:53:10.350Z,17.78
2022-10-05T19:55:41.739Z,17.89
2022-10-05T19:58:28.863Z,17.95
2022-10-05T20:00:58.835Z,17.99
2022-10-05T20:03:29.503Z,17.98
2022-10-05T20:06:05.126Z,18.00
2022-10-05T20:08:43.899Z,17.93
2022-10-05T20:11:10.758Z,18.00
2022-10-05T20:13:39.335Z,17.98
2022-10-05T20:16:35.445Z,17.97
2022-10-05T20:19:48.058Z,17.85
2022-10-05T20:22:34.970Z,17.81
2022-10-05T20:25:18.536Z,17.82
2022-10-05T20:27:51.094Z,17.83
2022-10-05T20:30:20.517Z,17.76
2022-10-05T20:32:48.720Z,17.75
2022-10-05T20:35:16.838Z,17.82
2022-10-05T20:37:43.650Z,17.84
2022-10-05T20:40:11.090Z,17.84
2022-10-05T20:42:40.041Z,17.75
2022-10-05T20:45:07.332Z,17.78
2022-10-05T20:50:37.600Z,17.84
2022-10-05T20:53:09.737Z,17.87
2022-10-05T20:55:38.595Z,17.86
2022-10-05T20:58:05.227Z,17.87
2022-10-05T21:00:51.851Z,17.88
2022-10-05T21:03:19.226Z,17.87
2022-10-05T21:05:46.930Z,17.88
2022-10-05T21:08:14.040Z,17.91
2022-10-05T21:10:40.840Z,17.80
2022-10-05T21:13:07.381Z,17.83
2022-10-05T21:15:33.949Z,17.82
2022-10-05T21:18:00.546Z,17.81
2022-10-05T21:20:27.102Z,17.87
2022-10-05T21:22:53.753Z,17.86
2022-10-05T21:25:20.210Z,17.81
2022-10-05T21:27:48.617Z,17.83
2022-10-05T21:30:15.461Z,17.82
2022-10-05T21:32:44.366Z,17.80
2022-10-05T21:35:11.432Z,17.72
2022-10-05T21:37:38.052Z,17.74
2022-10-05T21:40:05.113Z,17.73
2022-10-05T21:42:31.934Z,17.70
2022-10-05T21:44:58.473Z,17.66
2022-10-05T21:47:25.831Z,17.65
2022-10-05T21:49:52.532Z,17.66
2022-10-05T21:52:19.734Z,17.64
2022-10-05T21:54:46.875Z,17.61
2022-10-05T21:57:14.663Z,17.61
2022-10-05T21:59:42.545Z,17.64
2022-10-05T22:02:09.082Z,17.61
2022-10-05T22:04:35.574Z,17.59
2022-10-05T22:07:06.198Z,17.60
2022-10-05T22:09:32.765Z,17.58
2022-10-05T22:12:00.022Z,17.59
2022-10-05T22:14:28.297Z,17.49
2022-10-05T22:16:54.920Z,17.40
2022-10-05T22:19:21.592Z,17.38
2022-10-05T22:21:48.164Z,17.33
2022-10-05T22:24:14.678Z,17.29
2022-10-05T22:26:43.802Z,17.31
2022-10-05T22:29:10.543Z,17.27
2022-10-05T22:31:37.642Z,17.28
2022-10-05T22:34:04.307Z,17.26
2022-10-05T22:36:31.020Z,17.27
2022-10-05T22:38:57.595Z,17.22
2022-10-05T22:41:24.164Z,17.16
2022-10-05T22:43:51.958Z,17.04
2022-10-05T22:46:19.028Z,16.98
2022-10-05T22:48:45.719Z,17.02
2022-10-05T22:51:12.493Z,17.01
2022-10-05T22:53:39.160Z,16.99
2022-10-05T22:56:11.006Z,16.94
2022-10-05T22:58:38.290Z,16.94
2022-10-05T23:01:08.145Z,16.92
2022-10-05T23:03:35.414Z,16.98
2022-10-05T23:06:06.100Z,16.98
2022-10-05T23:08:34.127Z,16.96
2022-10-05T23:11:03.306Z,16.99
2022-10-05T23:13:30.440Z,16.91
2022-10-05T23:15:57.418Z,16.91
2022-10-05T23:18:24.082Z,16.86
2022-10-05T23:20:55.377Z,16.90
2022-10-05T23:23:23.306Z,16.88
2022-10-05T23:25:50.005Z,16.76
2022-10-05T23:28:16.670Z,16.78
2022-10-05T23:30:44.160Z,16.74
2022-10-05T23:33:10.922Z,16.75
2022-10-05T23:35:37.520Z,16.66
2022-10-05T23:38:04.667Z,16.57
2022-10-05T23:40:31.172Z,16.55
2022-10-05T23:42:58.478Z,16.55
2022-10-05T23:45:25.107Z,16.53
2022-10-05T23:47:51.652Z,16.55
2022-10-05T23:50:18.418Z,16.52
2022-10-05T23:52:44.982Z,16.52
2022-10-05T23:55:11.506Z,16.57
2022-10-05T23:57:39.155Z,16.56
